Time;durP1;ratioP1;P1;durP2;ratioP2;P2;SDS_P1;SDS_P2;PMS_P1;PMS_P2;Temp;Humidity;BMP_temperature;BMP_pressure;BME280_temperature;BME280_humidity;BME280_pressure;Samples;Min_cycle;Max_cycle;Signal;HPM_P1;HPM_P2
2021/12/14 00:02:26;;;;;;;19.07;10.00;;;;;;;5.64;100.00;152810.41;5083216;28;20429;-76
2021/12/14 00:05:01;;;;;;;17.87;9.90;;;;;;;5.63;100.00;152807.84;5064227;28;20902;-77
2021/12/14 00:07:38;;;;;;;20.40;10.43;;;;;;;5.67;100.00;152818.16;5073013;28;20452;-76
2021/12/14 00:10:32;;;;;;;18.07;10.50;;;;;;;5.67;100.00;152818.16;5069533;28;20445;-76
2021/12/14 00:13:17;;;;;;;13.50;10.30;;;;;;;5.67;100.00;152818.16;5046024;28;20849;-76
2021/12/14 00:15:53;;;;;;;15.90;9.77;;;;;;;5.66;100.00;152814.28;5057692;28;20774;-76
2021/12/14 00:18:29;;;;;;;14.73;8.97;;;;;;;5.63;100.00;152807.84;5074247;28;20448;-76
2021/12/14 00:21:09;;;;;;;13.77;9.50;;;;;;;5.61;100.00;152802.72;5062037;28;20452;-76
2021/12/14 00:26:44;;;;;;;14.20;9.50;;;;;;;5.59;100.00;152797.50;5085414;28;20549;-76
2021/12/14 00:29:23;;;;;;;15.93;9.20;;;;;;;5.59;100.00;152796.25;5074211;28;20761;-76
2021/12/14 00:32:04;;;;;;;15.83;8.90;;;;;;;5.57;100.00;152791.06;5083374;28;20459;-75
2021/12/14 00:34:42;;;;;;;12.10;8.73;;;;;;;5.54;100.00;152785.91;5087200;28;20453;-76
2021/12/14 00:37:20;;;;;;;21.47;9.40;;;;;;;5.56;100.00;152788.50;5072786;28;20876;-76
2021/12/14 00:40:00;;;;;;;17.47;9.10;;;;;;;5.53;100.00;152782.06;5073042;28;20453;-76
2021/12/14 00:42:36;;;;;;;17.17;10.70;;;;;;;5.47;100.00;152766.59;5069173;28;20951;-76
2021/12/14 00:45:12;;;;;;;13.03;8.47;;;;;;;5.44;100.00;152758.84;5056670;28;20987;-76
2021/12/14 00:47:49;;;;;;;14.00;8.23;;;;;;;5.44;100.00;152758.84;5060613;28;20441;-76
2021/12/14 00:50:26;;;;;;;18.07;8.73;;;;;;;5.43;100.00;152756.25;5056195;28;20446;-76
2021/12/14 00:53:02;;;;;;;13.57;8.80;;;;;;;5.43;100.00;152757.53;5057969;28;20556;-76
2021/12/14 00:55:41;;;;;;;13.07;8.27;;;;;;;5.45;100.00;152761.44;5072860;28;20548;-76
2021/12/14 00:58:19;;;;;;;12.03;9.07;;;;;;;5.45;100.00;152762.69;5074128;28;20446;-76
2021/12/14 01:01:00;;;;;;;15.33;9.20;;;;;;;5.42;100.00;152753.69;5057557;28;20457;-76
2021/12/14 01:03:38;;;;;;;12.80;7.83;;;;;;;5.46;100.00;152764.00;5040827;28;20441;-75
2021/12/14 01:06:15;;;;;;;11.37;8.17;;;;;;;5.43;100.00;152756.25;5087005;28;20444;-76
2021/12/14 01:08:51;;;;;;;13.63;8.17;;;;;;;5.43;100.00;152756.25;5057886;28;20441;-76
2021/12/14 01:11:32;;;;;;;15.10;9.23;;;;;;;5.42;100.00;152753.69;5077992;28;20448;-76
2021/12/14 01:14:11;;;;;;;13.73;8.60;;;;;;;5.38;100.00;152743.34;5075386;28;20465;-76
2021/12/14 01:16:53;;;;;;;13.67;7.43;;;;;;;5.43;100.00;152756.25;5075680;28;20486;-76
2021/12/14 01:19:32;;;;;;;13.40;7.30;;;;;;;5.40;100.00;152749.81;5066091;28;20528;-76
2021/12/14 01:25:11;;;;;;;17.50;8.23;;;;;;;5.40;100.00;152748.56;5068947;28;21001;-76
2021/12/14 01:27:52;;;;;;;13.83;7.27;;;;;;;5.40;100.00;152748.56;5051974;28;20450;-76
2021/12/14 01:30:34;;;;;;;12.10;7.83;;;;;;;5.37;100.00;152742.09;5050787;28;20450;-76
2021/12/14 01:33:13;;;;;;;19.03;8.83;;;;;;;5.38;100.00;152743.34;5070165;28;20471;-76
2021/12/14 01:35:49;;;;;;;29.47;9.07;;;;;;;5.37;100.00;152740.81;5045153;28;20446;-76
2021/12/14 01:38:35;;;;;;;19.50;8.17;;;;;;;5.40;100.00;152748.56;5073822;28;20441;-76
2021/12/14 01:41:14;;;;;;;16.47;7.33;;;;;;;5.36;100.00;152739.50;5041786;28;20438;-76
2021/12/14 01:43:54;;;;;;;22.53;7.90;;;;;;;5.36;100.00;152738.22;5061314;28;20452;-76
2021/12/14 01:46:37;;;;;;;16.17;8.20;;;;;;;5.35;100.00;152736.91;5039755;28;20453;-76
2021/12/14 01:49:36;;;;;;;14.83;7.57;;;;;;;5.37;100.00;152740.81;5073525;28;20456;-76
2021/12/14 01:52:44;;;;;;;22.30;8.57;;;;;;;5.37;100.00;152742.09;5042191;28;20497;-76
2021/12/14 01:55:22;;;;;;;19.90;7.90;;;;;;;5.34;100.00;152733.06;5061518;28;20440;-76
2021/12/14 01:58:00;;;;;;;18.97;7.20;;;;;;;5.31;100.00;152725.31;5056480;28;20446;-75
2021/12/14 02:00:40;;;;;;;19.63;7.60;;;;;;;5.31;100.00;152726.63;5051416;28;20936;-76
2021/12/14 02:03:16;;;;;;;12.40;7.70;;;;;;;5.30;100.00;152722.72;5087135;28;20440;-75
2021/12/14 02:05:52;;;;;;;12.40;8.20;;;;;;;5.33;100.00;152730.47;5070086;28;21039;-76
2021/12/14 02:08:32;;;;;;;18.50;7.00;;;;;;;5.30;100.00;152724.03;5057904;28;20955;-76
2021/12/14 02:11:10;;;;;;;17.33;8.03;;;;;;;5.27;100.00;152715.03;5059816;28;20444;-76
2021/12/14 02:13:47;;;;;;;14.83;7.80;;;;;;;5.28;100.00;152718.88;5061647;28;20456;-76
2021/12/14 02:16:32;;;;;;;34.33;9.20;;;;;;;5.25;100.00;152711.13;5079980;28;20460;-76
2021/12/14 02:19:13;;;;;;;16.40;7.70;;;;;;;5.28;100.00;152717.59;5086990;28;20858;-76
2021/12/14 02:21:52;;;;;;;17.73;9.00;;;;;;;5.27;100.00;152715.03;5038779;28;20434;-76
2021/12/14 02:24:30;;;;;;;19.90;9.07;;;;;;;5.26;100.00;152712.44;5055816;28;20437;-76
2021/12/14 02:27:08;;;;;;;18.77;8.03;;;;;;;5.22;100.00;152702.09;5043216;28;20840;-76
2021/12/14 02:29:46;;;;;;;15.90;7.60;;;;;;;5.31;100.00;152726.63;5064705;28;20443;-76
2021/12/14 02:32:26;;;;;;;20.80;7.30;;;;;;;5.33;100.00;152731.78;5059217;28;20790;-76
2021/12/14 02:35:05;;;;;;;22.00;7.83;;;;;;;5.33;100.00;152730.47;5057952;28;20452;-76
2021/12/14 02:37:44;;;;;;;18.23;7.50;;;;;;;5.25;100.00;152709.84;5057360;28;20535;-76
2021/12/14 02:40:32;;;;;;;23.10;8.03;;;;;;;5.23;100.00;152706.00;5075610;28;20986;-76
2021/12/14 02:43:08;;;;;;;18.93;7.10;;;;;;;5.26;100.00;152712.44;5075477;28;20433;-75
2021/12/14 02:45:43;;;;;;;37.33;8.37;;;;;;;5.28;100.00;152717.59;5058737;28;20461;-76
2021/12/14 02:48:20;;;;;;;17.57;6.90;;;;;;;5.28;100.00;152717.59;5079357;28;20802;-76
2021/12/14 02:50:55;;;;;;;33.70;8.77;;;;;;;5.26;100.00;152713.75;5060633;28;20456;-76
2021/12/14 02:53:32;;;;;;;19.40;8.23;;;;;;;5.23;100.00;152704.69;5063991;28;20473;-76
2021/12/14 02:56:12;;;;;;;14.53;7.40;;;;;;;5.25;100.00;152709.84;5066097;28;20794;-76
2021/12/14 02:58:50;;;;;;;22.10;8.33;;;;;;;5.22;100.00;152702.09;5062511;28;20452;-76
2021/12/14 03:01:26;;;;;;;22.13;8.63;;;;;;;5.19;100.00;152695.66;5039138;28;20604;-76
2021/12/14 03:04:05;;;;;;;25.27;9.00;;;;;;;5.22;100.00;152702.09;5056484;28;20445;-76
2021/12/14 03:06:47;;;;;;;21.10;8.40;;;;;;;5.21;100.00;152699.56;5058301;28;20441;-76
2021/12/14 03:09:38;;;;;;;27.83;8.10;;;;;;;5.30;100.00;152724.03;5074525;28;20490;-76
2021/12/14 03:12:31;;;;;;;21.97;8.90;;;;;;;5.26;100.00;152712.44;5091371;28;20457;-76
2021/12/14 03:15:10;;;;;;;29.40;7.37;;;;;;;5.21;100.00;152699.56;5057669;28;20528;-76
2021/12/14 03:17:48;;;;;;;14.13;6.80;;;;;;;5.17;100.00;152689.22;5038729;28;20442;-76
2021/12/14 03:20:27;;;;;;;20.63;7.80;;;;;;;5.22;100.00;152702.09;5049781;28;20445;-76
2021/12/14 03:23:06;;;;;;;19.57;7.57;;;;;;;5.14;100.00;152682.78;5070516;28;20437;-76
2021/12/14 03:25:46;;;;;;;21.60;8.30;;;;;;;5.18;100.00;152691.81;5058551;28;20480;-76
2021/12/14 03:28:24;;;;;;;17.33;7.83;;;;;;;5.33;100.00;152730.47;5086103;28;20474;-76
2021/12/14 03:31:20;;;;;;;24.27;6.97;;;;;;;5.19;100.00;152694.41;5074080;28;20449;-76
2021/12/14 03:33:59;;;;;;;25.73;8.00;;;;;;;5.14;100.00;152681.47;5057427;28;20461;-76
2021/12/14 03:36:38;;;;;;;25.70;8.30;;;;;;;5.18;100.00;152691.81;5085974;28;20869;-76
2021/12/14 03:39:16;;;;;;;17.53;6.53;;;;;;;5.15;100.00;152684.06;5063608;28;20437;-76
2021/12/14 03:41:58;;;;;;;12.53;6.57;;;;;;;5.16;100.00;152686.66;5048557;28;20450;-76
2021/12/14 03:44:37;;;;;;;48.27;9.00;;;;;;;5.15;100.00;152684.06;5041417;28;21008;-76
2021/12/14 03:47:20;;;;;;;21.97;7.63;;;;;;;5.03;100.00;152654.41;5073002;28;20445;-76
2021/12/14 03:49:58;;;;;;;52.50;8.83;;;;;;;5.00;100.00;152645.41;5066048;28;20451;-76
2021/12/14 03:52:37;;;;;;;28.07;7.40;;;;;;;4.96;100.00;152635.06;5041950;28;20528;-76
2021/12/14 03:55:16;;;;;;;22.70;6.67;;;;;;;5.00;100.00;152645.41;5042608;28;20466;-77
2021/12/14 03:57:54;;;;;;;49.77;9.30;;;;;;;5.02;100.00;152650.56;5041826;28;20438;-76
2021/12/14 04:00:36;;;;;;;29.53;8.53;;;;;;;4.93;100.00;152629.94;5078262;28;20440;-76
2021/12/14 04:03:15;;;;;;;58.27;10.10;;;;;;;4.93;100.00;152628.63;5096442;28;20528;-76
2021/12/14 04:06:03;;;;;;;45.20;8.47;;;;;;;4.91;100.00;152624.78;5054775;28;20445;-76
2021/12/14 04:08:39;;;;;;;72.90;16.20;;;;;;;4.89;100.00;152619.66;5055841;28;20447;-76
2021/12/14 04:11:16;;;;;;;68.77;17.13;;;;;;;4.81;100.00;152599.03;5058900;28;20540;-76
2021/12/14 04:13:55;;;;;;;37.73;15.13;;;;;;;4.81;100.00;152599.03;5043239;28;20476;-76
2021/12/14 04:16:45;;;;;;;43.73;16.90;;;;;;;4.87;100.00;152614.47;5048002;28;20442;-76
2021/12/14 04:19:25;;;;;;;38.00;14.33;;;;;;;4.85;100.00;152609.31;5064928;28;20536;-76
2021/12/14 04:22:07;;;;;;;53.37;11.83;;;;;;;4.81;100.00;152599.03;5089269;28;20943;-76
2021/12/14 04:24:43;;;;;;;49.50;9.73;;;;;;;4.75;100.00;152583.56;5075333;28;20823;-76
2021/12/14 04:27:23;;;;;;;51.47;8.53;;;;;;;4.81;100.00;152597.72;5071421;28;20418;-76
2021/12/14 04:30:04;;;;;;;28.27;8.00;;;;;;;4.76;100.00;152586.16;5042060;28;20450;-76
2021/12/14 04:32:41;;;;;;;27.50;7.90;;;;;;;4.84;100.00;152606.72;5077293;28;20449;-76
2021/12/14 04:35:19;;;;;;;80.00;11.70;;;;;;;4.80;100.00;152596.44;5048000;28;20491;-76
2021/12/14 04:37:58;;;;;;;49.47;15.23;;;;;;;4.76;100.00;152586.16;5060572;28;20864;-76
2021/12/14 04:52:11;;;;;;;46.87;12.00;;;;;;;4.70;100.00;152569.38;5077182;28;20436;-76
2021/12/14 04:54:49;;;;;;;44.87;9.47;;;;;;;4.71;100.00;152571.97;5043690;28;20508;-76
2021/12/14 04:57:30;;;;;;;43.73;8.30;;;;;;;4.68;100.00;152565.53;5066941;28;20449;-76
2021/12/14 05:00:19;;;;;;;61.13;9.17;;;;;;;4.67;100.00;152562.94;5040994;28;20461;-76
2021/12/14 05:03:05;;;;;;;31.23;8.87;;;;;;;4.61;100.00;152547.47;5065112;28;20450;-76
2021/12/14 05:05:48;;;;;;;70.97;14.77;;;;;;;4.56;100.00;152534.59;5050306;28;20454;-76
2021/12/14 05:11:25;;;;;;;59.10;12.30;;;;;;;4.47;100.00;152511.41;5075274;28;20522;-76
2021/12/14 05:14:06;;;;;;;22.87;8.37;;;;;;;4.45;100.00;152506.22;5076941;28;20449;-76
2021/12/14 05:16:55;;;;;;;92.80;10.27;;;;;;;4.51;100.00;152521.69;5042049;28;20442;-76
2021/12/14 05:19:34;;;;;;;59.53;9.10;;;;;;;4.47;100.00;152511.41;5047388;28;20452;-76
2021/12/14 05:22:12;;;;;;;58.60;10.10;;;;;;;4.48;100.00;152513.97;5044204;28;20807;-76
2021/12/14 05:24:57;;;;;;;23.27;6.77;;;;;;;4.47;100.00;152511.41;5052625;28;20932;-76
2021/12/14 05:27:38;;;;;;;22.90;6.73;;;;;;;4.42;100.00;152498.50;5059279;28;20437;-76
2021/12/14 05:30:17;;;;;;;51.80;8.47;;;;;;;4.44;100.00;152503.69;5093590;28;20536;-76
2021/12/14 05:33:06;;;;;;;15.70;7.37;;;;;;;4.44;100.00;152503.69;5039883;28;20449;-76
2021/12/14 05:35:46;;;;;;;10.13;4.90;;;;;;;4.50;100.00;152517.84;5065587;28;20440;-76
2021/12/14 05:38:37;;;;;;;10.73;6.13;;;;;;;4.54;100.00;152529.44;5045391;28;20441;-76
2021/12/14 05:44:13;;;;;;;30.70;6.90;;;;;;;4.58;100.00;152539.72;5051584;28;20434;-76
2021/12/14 05:47:01;;;;;;;10.70;5.70;;;;;;;4.62;100.00;152550.06;5059684;28;21076;-77
2021/12/14 05:49:50;;;;;;;31.37;7.13;;;;;;;4.62;100.00;152548.75;5059709;28;20798;-76
2021/12/14 05:52:29;;;;;;;21.53;6.97;;;;;;;4.58;100.00;152538.47;5071329;28;20772;-76
2021/12/14 05:55:15;;;;;;;9.20;5.50;;;;;;;4.53;100.00;152526.84;5046411;28;20857;-76
2021/12/14 05:57:51;;;;;;;6.93;4.80;;;;;;;4.52;100.00;152524.28;5046305;28;20988;-76
2021/12/14 06:00:29;;;;;;;11.67;4.83;;;;;;;4.45;100.00;152506.22;5093611;28;20437;-76
2021/12/14 06:03:17;;;;;;;9.33;5.40;;;;;;;4.47;100.00;152510.13;5065734;28;20437;-76
2021/12/14 06:05:56;;;;;;;12.23;6.60;;;;;;;4.48;100.00;152513.97;5056719;28;20456;-76
2021/12/14 06:08:35;;;;;;;7.77;5.30;;;;;;;4.53;100.00;152526.84;5093228;28;20503;-76
2021/12/14 06:11:24;;;;;;;11.70;5.80;;;;;;;4.53;100.00;152526.84;5063279;28;20567;-75
2021/12/14 06:14:02;;;;;;;12.80;5.83;;;;;;;4.51;100.00;152520.41;5067105;28;20468;-76
2021/12/14 06:16:39;;;;;;;23.83;7.17;;;;;;;4.53;100.00;152526.84;5055813;28;20433;-74
2021/12/14 06:19:18;;;;;;;22.30;7.63;;;;;;;4.52;100.00;152523.00;5047449;28;20520;-76
2021/12/14 06:21:57;;;;;;;15.13;7.40;;;;;;;4.51;100.00;152521.69;5044962;28;20445;-76
2021/12/14 06:24:37;;;;;;;19.20;4.97;;;;;;;4.48;100.00;152512.66;5038538;28;20537;-76
2021/12/14 06:27:15;;;;;;;7.90;6.00;;;;;;;4.48;100.00;152513.97;5039222;28;20433;-76
2021/12/14 06:29:53;;;;;;;8.97;4.90;;;;;;;4.55;100.00;152530.72;5073031;28;20457;-76
2021/12/14 06:32:31;;;;;;;10.20;5.43;;;;;;;4.54;100.00;152528.13;5065794;28;20440;-76
2021/12/14 06:35:11;;;;;;;19.97;6.30;;;;;;;4.38;100.00;152488.22;5056802;28;20827;-75
2021/12/14 06:41:07;;;;;;;9.00;5.10;;;;;;;4.48;100.00;152512.66;5042307;28;20444;-76
2021/12/14 06:43:47;;;;;;;9.53;5.27;;;;;;;4.50;100.00;152517.84;5040238;28;20453;-76
2021/12/14 06:46:25;;;;;;;15.80;6.73;;;;;;;4.51;100.00;152521.69;5071125;28;20800;-76
2021/12/14 06:49:04;;;;;;;15.93;6.27;;;;;;;4.51;100.00;152521.69;5040829;28;20453;-76
2021/12/14 06:51:43;;;;;;;9.97;5.53;;;;;;;4.48;100.00;152513.97;5057750;28;20437;-76
2021/12/14 06:54:25;;;;;;;9.50;5.17;;;;;;;4.44;100.00;152503.69;5049301;28;20477;-76
2021/12/14 06:57:15;;;;;;;16.40;5.17;;;;;;;4.37;100.00;152484.38;5052610;28;20430;-75
2021/12/14 06:59:50;;;;;;;8.27;5.97;;;;;;;4.37;100.00;152484.38;5069813;28;20478;-75
2021/12/14 07:02:33;;;;;;;13.93;6.63;;;;;;;4.34;100.00;152477.94;5061213;28;20489;-76
2021/12/14 07:05:19;;;;;;;8.90;5.90;;;;;;;4.32;100.00;152474.03;5038829;28;20447;-76
2021/12/14 07:07:59;;;;;;;11.10;6.30;;;;;;;4.35;100.00;152480.47;5074491;28;20422;-76
2021/12/14 07:10:38;;;;;;;9.07;5.60;;;;;;;4.37;100.00;152485.63;5042150;28;20599;-76
2021/12/14 07:13:19;;;;;;;11.13;6.20;;;;;;;4.30;100.00;152468.91;5056759;28;20454;-76
2021/12/14 07:15:55;;;;;;;10.43;6.30;;;;;;;4.31;100.00;152470.19;5092052;28;20472;-76
2021/12/14 07:18:32;;;;;;;9.90;7.03;;;;;;;4.31;100.00;152470.19;5089687;28;20820;-76
2021/12/14 07:21:07;;;;;;;8.57;6.10;;;;;;;4.30;100.00;152468.91;5064242;28;20795;-75
2021/12/14 07:23:43;;;;;;;12.33;5.90;;;;;;;4.23;100.00;152450.88;5090347;28;20444;-76
2021/12/14 07:26:19;;;;;;;10.90;5.67;;;;;;;4.25;100.00;152454.72;5064004;28;20516;-75
2021/12/14 07:28:58;;;;;;;8.67;5.43;;;;;;;4.21;100.00;152444.41;5070295;28;20448;-75
2021/12/14 07:31:42;;;;;;;9.10;5.50;;;;;;;4.17;100.00;152434.13;5073642;28;20448;-76
2021/12/14 07:34:22;;;;;;;15.90;6.43;;;;;;;4.15;100.00;152430.28;5073074;28;21012;-75
2021/12/14 07:36:58;;;;;;;17.07;7.53;;;;;;;4.12;100.00;152422.53;5067918;28;20475;-75
2021/12/14 07:39:33;;;;;;;12.60;7.93;;;;;;;4.12;100.00;152421.25;5040782;28;20483;-75
2021/12/14 07:42:15;;;;;;;13.50;7.10;;;;;;;4.11;100.00;152419.94;5063611;28;20791;-75
2021/12/14 07:45:08;;;;;;;23.07;7.70;;;;;;;4.14;100.00;152426.38;5069162;28;20544;-76
2021/12/14 07:47:50;;;;;;;15.50;6.63;;;;;;;4.17;100.00;152435.41;5053387;28;20444;-76
2021/12/14 07:50:42;;;;;;;15.67;7.57;;;;;;;4.17;100.00;152434.13;5053575;28;20449;-75
2021/12/14 07:53:30;;;;;;;11.07;5.37;;;;;;;4.21;100.00;152445.69;5063539;28;21011;-75
2021/12/14 07:56:06;;;;;;;43.90;7.40;;;;;;;4.26;100.00;152457.31;5072751;28;20970;-76
2021/12/14 07:58:46;;;;;;;22.70;7.30;;;;;;;4.22;100.00;152447.00;5053923;28;20453;-76
2021/12/14 08:01:23;;;;;;;30.40;7.10;;;;;;;4.17;100.00;152434.13;5071137;28;20452;-76
2021/12/14 08:04:06;;;;;;;13.23;6.13;;;;;;;4.09;100.00;152413.50;5056318;28;20440;-76
2021/12/14 08:06:49;;;;;;;28.47;7.73;;;;;;;4.12;100.00;152422.53;5061841;28;20804;-76
2021/12/14 08:09:46;;;;;;;18.47;6.47;;;;;;;4.11;100.00;152419.94;5072080;28;20459;-76
2021/12/14 08:12:31;;;;;;;50.00;7.67;;;;;;;4.15;100.00;152428.97;5091363;28;20440;-75
2021/12/14 08:15:12;;;;;;;8.10;5.97;;;;;;;4.17;100.00;152434.13;5091180;28;20476;-76
2021/12/14 08:18:00;;;;;;;17.03;7.60;;;;;;;4.17;100.00;152434.13;5064544;28;20872;-75
2021/12/14 08:20:38;;;;;;;16.00;6.30;;;;;;;4.11;100.00;152418.66;5056384;28;20671;-76
2021/12/14 08:23:19;;;;;;;10.60;5.37;;;;;;;4.09;100.00;152414.81;5041270;28;20445;-75
2021/12/14 08:25:59;;;;;;;18.57;6.43;;;;;;;4.11;100.00;152418.66;5073348;28;20476;-75
2021/12/14 08:28:48;;;;;;;10.13;6.20;;;;;;;4.18;100.00;152436.72;5056300;28;20940;-75
2021/12/14 08:31:32;;;;;;;10.67;6.30;;;;;;;4.20;100.00;152441.84;5071249;28;20445;-76
2021/12/14 08:34:13;;;;;;;10.43;5.87;;;;;;;4.21;100.00;152444.41;5080620;28;20456;-76
2021/12/14 08:36:53;;;;;;;11.13;7.53;;;;;;;4.24;100.00;152452.13;5072090;28;20436;-76
2021/12/14 08:39:31;;;;;;;11.50;6.20;;;;;;;4.29;100.00;152465.00;5076282;28;20452;-76
2021/12/14 08:42:11;;;;;;;17.03;7.43;;;;;;;4.33;100.00;152475.34;5066697;28;20430;-76
2021/12/14 08:44:55;;;;;;;9.67;7.00;;;;;;;4.38;100.00;152486.91;5063044;28;20457;-76
2021/12/14 08:47:34;;;;;;;9.17;6.43;;;;;;;4.46;100.00;152508.81;5063456;28;20552;-76
2021/12/14 08:50:14;;;;;;;8.93;6.63;;;;;;;4.52;100.00;152524.28;5072998;28;20437;-75
2021/12/14 08:52:51;;;;;;;10.07;6.50;;;;;;;4.51;100.00;152521.69;5067505;28;20866;-76
2021/12/14 08:55:31;;;;;;;9.87;6.77;;;;;;;4.53;100.00;152526.84;5073235;28;20488;-75
2021/12/14 08:58:07;;;;;;;9.23;6.50;;;;;;;4.56;100.00;152534.59;5040969;28;20437;-76
2021/12/14 09:00:47;;;;;;;9.77;7.10;;;;;;;4.65;100.00;152556.50;5043663;28;20476;-76
2021/12/14 09:03:31;;;;;;;10.67;7.00;;;;;;;4.70;100.00;152569.38;5082677;28;20440;-76
2021/12/14 09:06:12;;;;;;;9.00;6.87;;;;;;;4.71;100.00;152573.22;5064010;28;20453;-76
2021/12/14 09:08:50;;;;;;;9.93;6.80;;;;;;;4.75;100.00;152583.56;5091575;28;20944;-76
2021/12/14 09:11:29;;;;;;;10.73;7.07;;;;;;;4.84;100.00;152606.72;5062963;28;20449;-76
2021/12/14 09:14:05;;;;;;;8.77;6.93;;;;;;;4.91;100.00;152624.78;5054753;28;20434;-76
2021/12/14 09:16:44;;;;;;;7.43;6.20;;;;;;;4.91;100.00;152623.50;5055634;28;20465;-75
2021/12/14 09:19:23;;;;;;;8.97;6.20;;;;;;;4.99;100.00;152642.81;5054907;28;20426;-75
2021/12/14 09:22:02;;;;;;;9.63;6.90;;;;;;;5.03;100.00;152653.16;5062255;28;20437;-75
2021/12/14 09:24:39;;;;;;;8.07;7.27;;;;;;;5.09;100.00;152668.59;5075256;28;20445;-75
2021/12/14 09:27:20;;;;;;;9.80;7.50;;;;;;;5.15;100.00;152684.06;5075046;28;20421;-75
2021/12/14 09:29:56;;;;;;;12.47;8.17;;;;;;;5.20;100.00;152696.94;5072328;28;20924;-76
2021/12/14 09:32:34;;;;;;;7.60;6.30;;;;;;;5.22;100.00;152702.09;5055062;28;20438;-74
2021/12/14 09:35:16;;;;;;;10.50;6.57;;;;;;;5.28;100.00;152717.59;5039799;28;20474;-75
2021/12/14 09:37:56;;;;;;;11.23;7.10;;;;;;;5.24;100.00;152707.28;5055081;28;21007;-74
2021/12/14 09:40:36;;;;;;;9.67;7.07;;;;;;;5.31;100.00;152725.31;5076001;28;20449;-75
2021/12/14 09:43:13;;;;;;;9.67;7.70;;;;;;;5.23;100.00;152706.00;5084518;28;20959;-77
2021/12/14 09:45:52;;;;;;;9.47;7.20;;;;;;;5.24;100.00;152707.28;5075277;28;20433;-76
2021/12/14 09:48:34;;;;;;;9.70;6.73;;;;;;;5.17;100.00;152690.50;5084655;28;20789;-77
2021/12/14 09:51:14;;;;;;;9.40;7.10;;;;;;;5.19;100.00;152694.41;5072058;28;21009;-76
2021/12/14 09:53:55;;;;;;;11.27;8.53;;;;;;;5.22;100.00;152702.09;5073196;28;20888;-77
2021/12/14 09:56:37;;;;;;;8.27;6.97;;;;;;;5.31;100.00;152725.31;5064809;28;20473;-77
2021/12/14 09:59:13;;;;;;;11.63;8.97;;;;;;;5.32;100.00;152727.91;5065879;28;20445;-77
2021/12/14 10:01:52;;;;;;;9.60;7.20;;;;;;;5.26;100.00;152712.44;5071469;28;20951;-76
2021/12/14 10:04:33;;;;;;;10.67;7.43;;;;;;;5.24;100.00;152708.53;5058317;28;20445;-77
2021/12/14 10:07:10;;;;;;;11.17;9.17;;;;;;;5.25;100.00;152709.84;5069849;28;20452;-77
2021/12/14 10:09:49;;;;;;;10.07;7.70;;;;;;;5.34;100.00;152733.06;5087625;28;20936;-77
2021/12/14 10:12:49;;;;;;;9.67;7.00;;;;;;;5.34;100.00;152733.06;5073701;28;20481;-77
2021/12/14 10:15:31;;;;;;;9.27;8.30;;;;;;;5.35;100.00;152735.63;5074349;28;20476;-77
2021/12/14 10:18:09;;;;;;;10.20;7.80;;;;;;;5.37;100.00;152742.09;5065429;28;20789;-77
2021/12/14 10:20:47;;;;;;;9.87;8.33;;;;;;;5.34;100.00;152734.38;5058753;28;20453;-77
2021/12/14 10:23:24;;;;;;;12.43;7.30;;;;;;;5.42;100.00;152753.69;5069259;28;20438;-76
2021/12/14 10:26:05;;;;;;;8.53;6.37;;;;;;;5.45;100.00;152761.44;5041354;28;20474;-76
2021/12/14 10:28:45;;;;;;;10.23;7.63;;;;;;;5.47;100.00;152766.59;5032835;28;20420;-76
2021/12/14 10:31:27;;;;;;;11.57;8.73;;;;;;;5.48;100.00;152770.44;5033508;28;20450;-76
2021/12/14 10:34:06;;;;;;;11.27;8.30;;;;;;;5.52;100.00;152780.78;5048187;28;20439;-77
2021/12/14 10:36:45;;;;;;;8.60;6.73;;;;;;;5.60;100.00;152800.09;5040199;28;20463;-77
2021/12/14 10:39:37;;;;;;;10.63;7.37;;;;;;;5.57;100.00;152792.38;5042275;28;20443;-77
2021/12/14 10:45:11;;;;;;;9.60;7.70;;;;;;;5.44;100.00;152760.13;5035207;28;20443;-76
2021/12/14 10:47:46;;;;;;;12.60;9.53;;;;;;;5.49;100.00;152771.72;5046607;28;20463;-76
2021/12/14 10:50:25;;;;;;;11.13;7.80;;;;;;;5.52;100.00;152779.47;5035058;28;20447;-76
2021/12/14 10:53:02;;;;;;;10.93;8.43;;;;;;;5.51;100.00;152776.88;5031818;28;20443;-76
2021/12/14 10:55:42;;;;;;;11.27;8.10;;;;;;;5.52;100.00;152780.78;5035118;28;20479;-76
2021/12/14 10:58:24;;;;;;;10.70;8.00;;;;;;;5.60;100.00;152800.09;5046891;28;20444;-76
2021/12/14 11:01:04;;;;;;;11.13;8.40;;;;;;;5.65;100.00;152811.69;5049286;28;20451;-76
2021/12/14 11:03:45;;;;;;;11.20;8.37;;;;;;;5.68;100.00;152820.75;5042194;28;20454;-76
2021/12/14 11:06:27;;;;;;;16.30;8.10;;;;;;;5.75;100.00;152837.47;5047704;28;20450;-76
2021/12/14 11:12:03;;;;;;;10.50;8.30;;;;;;;5.79;100.00;152849.13;5050157;28;20439;-76
2021/12/14 11:14:40;;;;;;;12.07;8.67;;;;;;;5.72;100.00;152831.03;5049979;28;20853;-76
2021/12/14 11:20:14;;;;;;;10.77;9.30;;;;;;;5.75;100.00;152838.78;5047895;28;20942;-76
2021/12/14 11:22:52;;;;;;;9.60;8.03;;;;;;;5.77;100.00;152843.94;5030577;28;20427;-76
2021/12/14 11:25:36;;;;;;;10.07;7.87;;;;;;;5.84;100.00;152860.72;5041768;28;20471;-75
2021/12/14 11:28:17;;;;;;;9.40;8.20;;;;;;;5.86;100.00;152865.91;5051379;28;20506;-76
2021/12/14 11:30:57;;;;;;;11.17;8.60;;;;;;;5.82;100.00;152856.88;5052180;28;20441;-76
2021/12/14 11:33:35;;;;;;;10.30;8.03;;;;;;;5.82;100.00;152856.88;5050105;28;20466;-76
2021/12/14 11:36:14;;;;;;;10.37;7.50;;;;;;;5.92;100.00;152882.69;5032001;28;20475;-76
2021/12/14 11:38:53;;;;;;;10.87;8.17;;;;;;;5.85;100.00;152864.63;5036437;28;20443;-75
2021/12/14 11:41:35;;;;;;;10.80;8.63;;;;;;;5.89;100.00;152874.97;5044238;28;20449;-76
2021/12/14 11:44:17;;;;;;;11.60;9.40;;;;;;;5.78;100.00;152846.53;5050038;28;20439;-76
2021/12/14 11:47:03;;;;;;;10.97;9.80;;;;;;;5.83;100.00;152859.41;5050267;28;20522;-76
2021/12/14 11:49:51;;;;;;;13.37;10.00;;;;;;;5.87;100.00;152868.50;5050677;28;20473;-75
2021/12/14 11:52:39;;;;;;;14.87;9.53;;;;;;;5.94;100.00;152887.84;5048230;28;20483;-75
2021/12/14 11:55:23;;;;;;;12.90;10.43;;;;;;;6.03;100.00;152911.09;5034952;28;20455;-75
2021/12/14 11:58:17;;;;;;;11.57;10.37;;;;;;;5.95;100.00;152889.16;5035569;28;20815;-76
2021/12/14 12:00:57;;;;;;;12.00;9.87;;;;;;;5.98;100.00;152898.16;5034217;28;20779;-76
2021/12/14 12:03:44;;;;;;;14.60;10.30;;;;;;;6.07;100.00;152920.09;5067866;28;20458;-75
2021/12/14 12:06:43;;;;;;;11.50;9.63;;;;;;;6.17;100.00;152944.63;5053477;28;20467;-74
2021/12/14 12:09:30;;;;;;;12.37;10.77;;;;;;;6.05;100.00;152916.25;5034778;28;20416;-75
2021/12/14 12:12:20;;;;;;;11.00;9.53;;;;;;;6.01;100.00;152904.66;5033508;28;20450;-76
2021/12/14 12:14:57;;;;;;;16.13;11.20;;;;;;;6.08;100.00;152923.97;5035468;28;20911;-75
2021/12/14 12:17:36;;;;;;;12.00;9.70;;;;;;;6.10;100.00;152929.13;5033807;28;20517;-75
2021/12/14 12:20:22;;;;;;;10.90;9.80;;;;;;;6.09;100.00;152926.53;5042191;28;20458;-75
2021/12/14 12:23:00;;;;;;;12.03;9.90;;;;;;;6.07;100.00;152921.38;5034702;28;20418;-75
2021/12/14 12:25:37;;;;;;;12.50;10.20;;;;;;;6.11;100.00;152931.72;5066165;28;20533;-75
2021/12/14 12:28:15;;;;;;;13.10;10.17;;;;;;;6.12;100.00;152934.28;5093268;28;20912;-75
2021/12/14 12:30:52;;;;;;;11.87;9.87;;;;;;;6.14;100.00;152939.44;5059802;28;20442;-75
2021/12/14 12:33:31;;;;;;;12.90;10.20;;;;;;;6.25;100.00;152965.28;5055948;28;20971;-75
2021/12/14 12:36:13;;;;;;;13.80;10.33;;;;;;;6.26;100.00;152967.81;5074224;28;20477;-75
2021/12/14 12:38:53;;;;;;;16.20;11.30;;;;;;;6.29;100.00;152975.56;5086150;28;20888;-75
2021/12/14 12:41:35;;;;;;;12.40;10.07;;;;;;;6.30;100.00;152979.41;5073629;28;20480;-74
2021/12/14 12:44:12;;;;;;;12.07;10.30;;;;;;;6.29;100.00;152976.88;5090065;28;20856;-75
2021/12/14 12:46:52;;;;;;;13.20;10.00;;;;;;;6.35;100.00;152992.38;5075088;28;20456;-75
2021/12/14 12:49:30;;;;;;;13.30;10.60;;;;;;;6.41;100.00;153007.81;5092065;28;20540;-75
2021/12/14 12:52:12;;;;;;;13.33;11.33;;;;;;;6.40;100.00;153005.28;5076394;28;20800;-75
2021/12/14 12:54:54;;;;;;;14.40;11.60;;;;;;;6.35;100.00;152991.06;5076108;28;20841;-75